createdAt,value
2022-12-28T00:03:20.525Z,10.36
2022-12-28T00:08:20.786Z,10.46
2022-12-28T00:13:19.648Z,10.50
2022-12-28T00:18:18.362Z,10.53
2022-12-28T00:23:17.082Z,10.50
2022-12-28T00:28:17.182Z,10.43
2022-12-28T00:33:16.436Z,10.35
2022-12-28T00:38:15.248Z,10.29
2022-12-28T00:43:14.057Z,10.25
2022-12-28T00:48:15.054Z,9.98
2022-12-28T00:53:14.404Z,10.02
2022-12-28T00:58:13.839Z,10.11
2022-12-28T01:03:13.943Z,10.22
2022-12-28T01:08:12.685Z,10.19
2022-12-28T01:13:11.377Z,10.11
2022-12-28T01:18:10.182Z,10.17
2022-12-28T01:23:13.082Z,10.18
2022-12-28T01:28:12.246Z,10.17
2022-12-28T01:33:11.533Z,10.23
2022-12-28T01:38:10.349Z,10.26
2022-12-28T01:43:14.711Z,10.28
2022-12-28T01:48:28.822Z,10.31
2022-12-28T01:53:28.598Z,10.34
2022-12-28T01:58:33.247Z,10.36
2022-12-28T02:03:35.864Z,10.38
2022-12-28T02:08:41.963Z,10.22
2022-12-28T02:13:44.482Z,10.15
2022-12-28T02:18:45.178Z,10.21
2022-12-28T02:24:12.213Z,9.67
2022-12-28T02:29:38.904Z,9.28
2022-12-28T02:34:45.776Z,9.14
2022-12-28T02:39:50.160Z,8.92
2022-12-28T02:45:07.540Z,8.99
2022-12-28T02:50:09.805Z,8.61
2022-12-28T02:55:38.077Z,8.28
2022-12-28T03:00:50.377Z,7.94
2022-12-28T03:06:19.374Z,8.06
2022-12-28T03:11:21.704Z,7.97
2022-12-28T03:16:29.534Z,7.96
2022-12-28T03:21:48.441Z,7.94
2022-12-28T03:27:08.499Z,7.75
2022-12-28T03:32:16.454Z,7.83
2022-12-28T03:37:20.021Z,7.75
2022-12-28T03:42:44.712Z,7.78
2022-12-28T03:47:49.101Z,7.81
2022-12-28T03:52:48.648Z,7.66
2022-12-28T03:57:47.593Z,7.57
2022-12-28T04:02:54.375Z,7.16
2022-12-28T04:07:53.566Z,7.12
2022-12-28T04:12:58.280Z,6.89
2022-12-28T04:18:18.027Z,6.93
2022-12-28T04:23:16.771Z,7.02
2022-12-28T04:28:16.047Z,7.15
2022-12-28T04:33:48.369Z,7.25
2022-12-28T04:38:47.364Z,7.11
2022-12-28T04:43:46.208Z,7.16
2022-12-28T04:48:45.000Z,7.26
2022-12-28T04:53:45.347Z,7.14
2022-12-28T04:58:44.213Z,7.02
2022-12-28T05:03:48.181Z,7.17
2022-12-28T05:08:53.280Z,7.13
2022-12-28T05:13:52.742Z,7.06
2022-12-28T05:18:54.723Z,7.06
2022-12-28T05:23:55.730Z,7.01
2022-12-28T05:28:54.747Z,6.98
2022-12-28T05:33:53.677Z,6.94
2022-12-28T05:38:53.084Z,6.76
2022-12-28T05:43:53.632Z,6.71
2022-12-28T05:48:52.755Z,6.68
2022-12-28T05:53:51.780Z,6.75
2022-12-28T05:58:56.826Z,6.60
2022-12-28T06:03:58.956Z,6.66
2022-12-28T06:08:58.022Z,6.50
2022-12-28T06:14:00.277Z,6.45
2022-12-28T06:18:59.785Z,6.62
2022-12-28T06:24:01.067Z,6.55
2022-12-28T06:29:02.254Z,6.48
2022-12-28T06:34:02.566Z,6.47
2022-12-28T06:39:02.506Z,6.38
2022-12-28T06:44:03.412Z,6.32
2022-12-28T06:49:02.886Z,6.60
2022-12-28T06:54:01.755Z,6.76
2022-12-28T06:59:04.389Z,6.82
2022-12-28T07:04:10.346Z,6.82
2022-12-28T07:09:17.376Z,6.85
2022-12-28T07:14:19.056Z,6.93
2022-12-28T07:19:19.018Z,7.04
2022-12-28T07:24:20.782Z,7.12
2022-12-28T07:29:22.258Z,7.12
2022-12-28T07:34:23.615Z,7.29
2022-12-28T07:39:23.760Z,7.50
2022-12-28T07:44:29.399Z,7.17
2022-12-28T07:49:36.608Z,7.06
2022-12-28T07:54:38.811Z,6.95
2022-12-28T07:59:39.153Z,7.09
2022-12-28T08:04:41.272Z,7.45
2022-12-28T08:09:43.550Z,7.54
2022-12-28T08:14:46.885Z,7.61
2022-12-28T08:19:46.924Z,7.57
2022-12-28T08:24:46.054Z,7.71
2022-12-28T08:29:51.112Z,8.06
2022-12-28T08:34:52.854Z,8.51
2022-12-28T08:39:53.319Z,8.78
2022-12-28T08:44:54.930Z,9.07
2022-12-28T08:49:54.488Z,9.46
2022-12-28T08:54:55.468Z,9.16
2022-12-28T08:59:56.328Z,9.06
2022-12-28T09:04:59.323Z,9.17
2022-12-28T09:09:58.182Z,9.48
2022-12-28T09:15:02.465Z,9.60
2022-12-28T09:20:01.787Z,9.98
2022-12-28T09:25:12.673Z,10.42
2022-12-28T09:30:14.211Z,10.37
2022-12-28T09:35:13.057Z,10.74
2022-12-28T09:40:13.660Z,11.37
2022-12-28T09:45:14.432Z,11.32
2022-12-28T09:50:30.296Z,11.18
2022-12-28T09:55:30.919Z,11.64
2022-12-28T10:00:38.829Z,12.21
2022-12-28T10:05:37.678Z,12.70
2022-12-28T10:10:36.535Z,12.76
2022-12-28T10:15:37.366Z,13.44
2022-12-28T10:20:36.465Z,13.58
2022-12-28T10:25:35.230Z,13.73
2022-12-28T10:30:34.168Z,14.11
2022-12-28T10:35:42.014Z,14.81
2022-12-28T10:40:40.993Z,15.19
2022-12-28T10:45:45.459Z,15.53
2022-12-28T10:50:50.779Z,14.63
2022-12-28T10:55:49.611Z,15.27
2022-12-28T11:00:55.792Z,16.11
2022-12-28T11:06:15.136Z,15.77
2022-12-28T11:11:24.628Z,16.46
2022-12-28T11:16:23.529Z,16.55
2022-12-28T11:21:24.112Z,17.13
2022-12-28T11:26:23.425Z,18.13
2022-12-28T11:31:28.985Z,18.57
2022-12-28T11:36:29.658Z,18.58
2022-12-28T11:42:09.998Z,18.78
2022-12-28T11:47:28.142Z,19.47
2022-12-28T11:52:51.270Z,19.57
2022-12-28T11:57:50.340Z,20.17
2022-12-28T12:02:51.352Z,20.71
2022-12-28T12:07:51.541Z,20.71
2022-12-28T12:12:53.060Z,20.16
2022-12-28T12:17:56.483Z,20.31
2022-12-28T12:23:00.569Z,20.32
2022-12-28T12:28:03.201Z,20.56
2022-12-28T12:33:05.142Z,20.70
2022-12-28T12:38:11.558Z,20.41
2022-12-28T12:43:37.594Z,20.42
2022-12-28T12:48:58.999Z,20.80
2022-12-28T12:54:19.076Z,20.54
2022-12-28T12:59:41.744Z,20.40
2022-12-28T13:04:51.205Z,20.51
2022-12-28T13:10:04.493Z,20.38
2022-12-28T13:15:12.422Z,20.49
2022-12-28T13:20:26.478Z,20.48
2022-12-28T13:25:32.876Z,20.58
2022-12-28T13:30:35.165Z,20.78
2022-12-28T13:35:36.005Z,21.00
2022-12-28T13:40:45.052Z,20.85
2022-12-28T13:45:50.938Z,20.79
2022-12-28T13:50:53.689Z,20.74
2022-12-28T13:55:57.791Z,20.68
2022-12-28T14:00:59.460Z,20.13
2022-12-28T14:06:02.132Z,19.44
2022-12-28T14:11:03.773Z,19.35
2022-12-28T14:16:03.790Z,19.18
2022-12-28T14:21:04.224Z,19.26
2022-12-28T14:26:07.393Z,19.17
2022-12-28T14:31:08.419Z,18.89
2022-12-28T14:36:09.436Z,18.69
2022-12-28T14:41:19.584Z,18.37
2022-12-28T14:46:29.422Z,18.00
2022-12-28T14:51:31.437Z,17.49
2022-12-28T14:56:36.126Z,17.02
2022-12-28T15:01:43.021Z,16.63
2022-12-28T15:06:41.981Z,16.27
2022-12-28T15:11:42.520Z,15.89
2022-12-28T15:16:41.331Z,15.52
2022-12-28T15:21:40.187Z,15.14
2022-12-28T15:26:39.549Z,14.77
2022-12-28T15:31:39.832Z,14.44
2022-12-28T15:36:38.967Z,14.19
2022-12-28T15:41:50.439Z,13.92
2022-12-28T15:46:51.068Z,13.64
2022-12-28T15:51:50.117Z,13.41
2022-12-28T15:56:53.909Z,13.19
2022-12-28T16:01:54.323Z,13.04
2022-12-28T16:06:53.270Z,12.86
2022-12-28T16:11:55.324Z,12.70
2022-12-28T16:16:55.779Z,12.52
2022-12-28T16:21:54.583Z,12.38
2022-12-28T16:26:53.471Z,12.23
2022-12-28T16:31:55.396Z,12.09
2022-12-28T16:36:58.304Z,11.98
2022-12-28T16:41:57.673Z,11.87
2022-12-28T16:46:58.480Z,11.73
2022-12-28T16:51:59.369Z,11.61
2022-12-28T16:56:58.203Z,11.47
2022-12-28T17:01:59.241Z,11.38
2022-12-28T17:06:59.850Z,11.29
2022-12-28T17:11:58.640Z,11.19
2022-12-28T17:16:59.800Z,11.08
2022-12-28T17:22:00.068Z,10.96
2022-12-28T17:27:05.129Z,10.85
2022-12-28T17:32:07.258Z,10.70
2022-12-28T17:37:07.669Z,10.55
2022-12-28T17:42:07.013Z,10.42
2022-12-28T17:47:07.510Z,10.29
2022-12-28T17:52:08.072Z,10.16
2022-12-28T17:57:06.855Z,10.03
2022-12-28T18:02:10.123Z,9.93
2022-12-28T18:07:10.329Z,9.81
2022-12-28T18:12:09.082Z,9.61
2022-12-28T18:17:07.920Z,9.41
2022-12-28T18:22:06.836Z,9.11
2022-12-28T18:27:10.230Z,8.96
2022-12-28T18:32:08.980Z,8.95
2022-12-28T18:37:07.873Z,8.92
2022-12-28T18:42:08.103Z,8.74
2022-12-28T18:47:06.882Z,8.50
2022-12-28T18:52:06.287Z,8.45
2022-12-28T18:57:05.154Z,8.43
2022-12-28T19:02:07.452Z,8.42
2022-12-28T19:07:07.115Z,8.39
2022-12-28T19:12:06.231Z,8.25
2022-12-28T19:17:08.312Z,8.21
2022-12-28T19:22:07.072Z,8.18
2022-12-28T19:27:05.788Z,8.14
2022-12-28T19:32:06.400Z,8.10
2022-12-28T19:37:05.145Z,8.09
2022-12-28T19:42:03.982Z,8.05
2022-12-28T19:47:02.814Z,8.02
2022-12-28T19:52:03.442Z,7.97
2022-12-28T19:57:02.334Z,7.93
2022-12-28T20:02:01.366Z,7.84
2022-12-28T20:07:03.157Z,7.80
2022-12-28T20:12:01.994Z,7.78
2022-12-28T20:17:01.111Z,7.75
2022-12-28T20:22:01.832Z,7.70
2022-12-28T20:27:02.156Z,7.68
2022-12-28T20:32:02.184Z,7.66
2022-12-28T20:37:03.349Z,7.61
2022-12-28T20:42:22.737Z,7.59
2022-12-28T20:47:22.385Z,7.56
2022-12-28T20:52:23.067Z,7.51
2022-12-28T20:57:23.246Z,7.46
2022-12-28T21:02:22.456Z,7.41
2022-12-28T21:07:23.037Z,7.38
2022-12-28T21:12:23.851Z,7.33
2022-12-28T21:17:25.305Z,7.27
2022-12-28T21:22:24.436Z,7.23
2022-12-28T21:27:26.652Z,7.20
2022-12-28T21:32:26.646Z,7.16
2022-12-28T21:37:38.168Z,7.13
2022-12-28T21:42:41.377Z,7.09
2022-12-28T21:47:41.606Z,7.07
2022-12-28T21:52:40.377Z,6.99
2022-12-28T21:57:41.022Z,6.77
2022-12-28T22:02:57.888Z,6.75
2022-12-28T22:08:16.708Z,6.78
2022-12-28T22:13:17.678Z,6.80
2022-12-28T22:23:39.510Z,6.79
2022-12-28T22:28:39.708Z,6.81
2022-12-28T22:33:38.499Z,6.79
2022-12-28T22:38:37.293Z,6.79
2022-12-28T22:43:36.103Z,6.74
2022-12-28T22:48:36.858Z,6.68
2022-12-28T22:53:36.995Z,6.67
2022-12-28T22:58:35.802Z,6.64
2022-12-28T23:03:37.924Z,6.47
2022-12-28T23:08:36.834Z,6.40
2022-12-28T23:13:35.651Z,6.15
2022-12-28T23:18:54.103Z,6.24
2022-12-28T23:24:10.322Z,6.19
2022-12-28T23:29:09.091Z,6.25
2022-12-28T23:34:09.257Z,6.27
2022-12-28T23:39:08.014Z,6.18
2022-12-28T23:44:06.726Z,6.11
2022-12-28T23:49:05.468Z,6.17
2022-12-28T23:54:05.687Z,6.22
2022-12-28T23:59:04.798Z,6.21
